sensor_id;sensor_type;location;lat;lon;timestamp;pressure;altitude;pressure_sealevel;temperature;humidity
75247;BME280;63844;50.042;19.224;2023-05-07T00:00:54;99160.70;;;10.57;84.65
75247;BME280;63844;50.042;19.224;2023-05-07T00:03:21;99158.16;;;10.52;84.77
75247;BME280;63844;50.042;19.224;2023-05-07T00:05:48;99161.05;;;10.48;85.07
75247;BME280;63844;50.042;19.224;2023-05-07T00:08:15;99163.84;;;10.49;85.16
75247;BME280;63844;50.042;19.224;2023-05-07T00:10:41;99163.92;;;10.48;85.03
75247;BME280;63844;50.042;19.224;2023-05-07T00:13:08;99168.61;;;10.44;85.65
75247;BME280;63844;50.042;19.224;2023-05-07T00:15:34;99168.92;;;10.42;85.45
75247;BME280;63844;50.042;19.224;2023-05-07T00:18:01;99168.06;;;10.44;84.58
75247;BME280;63844;50.042;19.224;2023-05-07T00:20:27;99169.79;;;10.39;85.40
75247;BME280;63844;50.042;19.224;2023-05-07T00:22:53;99172.52;;;10.38;85.48
75247;BME280;63844;50.042;19.224;2023-05-07T00:25:20;99172.73;;;10.34;85.80
75247;BME280;63844;50.042;19.224;2023-05-07T00:27:47;99171.89;;;10.34;85.81
75247;BME280;63844;50.042;19.224;2023-05-07T00:30:13;99169.48;;;10.32;86.09
75247;BME280;63844;50.042;19.224;2023-05-07T00:32:40;99171.27;;;10.29;86.39
75247;BME280;63844;50.042;19.224;2023-05-07T00:35:07;99169.62;;;10.27;86.41
75247;BME280;63844;50.042;19.224;2023-05-07T00:37:33;99169.91;;;10.25;86.46
75247;BME280;63844;50.042;19.224;2023-05-07T00:40:00;99173.78;;;10.26;85.64
75247;BME280;63844;50.042;19.224;2023-05-07T00:42:26;99170.61;;;10.25;85.84
75247;BME280;63844;50.042;19.224;2023-05-07T00:44:54;99170.63;;;10.19;86.32
75247;BME280;63844;50.042;19.224;2023-05-07T00:47:21;99173.91;;;10.18;86.63
75247;BME280;63844;50.042;19.224;2023-05-07T00:49:48;99180.56;;;10.19;86.07
75247;BME280;63844;50.042;19.224;2023-05-07T00:52:16;99181.02;;;10.20;86.37
75247;BME280;63844;50.042;19.224;2023-05-07T00:54:43;99179.53;;;10.18;86.66
75247;BME280;63844;50.042;19.224;2023-05-07T00:57:11;99180.89;;;10.19;86.27
75247;BME280;63844;50.042;19.224;2023-05-07T00:59:38;99184.98;;;10.19;85.81
75247;BME280;63844;50.042;19.224;2023-05-07T01:02:06;99183.45;;;10.18;86.06
75247;BME280;63844;50.042;19.224;2023-05-07T01:04:33;99183.02;;;10.17;86.52
75247;BME280;63844;50.042;19.224;2023-05-07T01:07:01;99181.95;;;10.13;86.25
75247;BME280;63844;50.042;19.224;2023-05-07T01:09:28;99184.77;;;10.14;86.41
75247;BME280;63844;50.042;19.224;2023-05-07T01:11:56;99187.63;;;10.13;86.26
75247;BME280;63844;50.042;19.224;2023-05-07T01:14:23;99187.77;;;10.14;86.32
75247;BME280;63844;50.042;19.224;2023-05-07T01:16:50;99188.48;;;10.11;86.42
75247;BME280;63844;50.042;19.224;2023-05-07T01:19:18;99190.39;;;10.08;86.34
75247;BME280;63844;50.042;19.224;2023-05-07T01:21:46;99186.70;;;10.10;86.15
75247;BME280;63844;50.042;19.224;2023-05-07T01:24:14;99188.22;;;10.09;86.13
75247;BME280;63844;50.042;19.224;2023-05-07T01:26:42;99186.39;;;10.07;86.27
75247;BME280;63844;50.042;19.224;2023-05-07T01:29:09;99186.55;;;10.07;86.41
75247;BME280;63844;50.042;19.224;2023-05-07T01:31:36;99187.97;;;10.07;86.27
75247;BME280;63844;50.042;19.224;2023-05-07T01:34:04;99187.67;;;10.06;86.27
75247;BME280;63844;50.042;19.224;2023-05-07T01:36:33;99187.05;;;10.05;86.49
75247;BME280;63844;50.042;19.224;2023-05-07T01:39:01;99184.50;;;10.03;86.57
75247;BME280;63844;50.042;19.224;2023-05-07T01:41:28;99182.19;;;10.01;86.94
75247;BME280;63844;50.042;19.224;2023-05-07T01:43:56;99182.84;;;10.01;86.78
75247;BME280;63844;50.042;19.224;2023-05-07T01:46:26;99182.12;;;10.02;86.79
75247;BME280;63844;50.042;19.224;2023-05-07T01:48:52;99183.70;;;9.99;87.06
75247;BME280;63844;50.042;19.224;2023-05-07T01:51:19;99187.64;;;10.01;86.43
75247;BME280;63844;50.042;19.224;2023-05-07T01:53:46;99185.25;;;10.00;86.14
75247;BME280;63844;50.042;19.224;2023-05-07T01:56:17;99188.84;;;9.99;86.26
75247;BME280;63844;50.042;19.224;2023-05-07T01:58:45;99194.15;;;9.96;86.57
75247;BME280;63844;50.042;19.224;2023-05-07T02:01:13;99196.88;;;9.95;86.58
75247;BME280;63844;50.042;19.224;2023-05-07T02:03:40;99199.59;;;9.94;86.70
75247;BME280;63844;50.042;19.224;2023-05-07T02:06:07;99198.46;;;9.86;86.58
75247;BME280;63844;50.042;19.224;2023-05-07T02:08:33;99198.80;;;9.72;86.67
75247;BME280;63844;50.042;19.224;2023-05-07T02:11:00;99200.89;;;9.63;87.19
75247;BME280;63844;50.042;19.224;2023-05-07T02:13:29;99204.10;;;9.53;87.66
75247;BME280;63844;50.042;19.224;2023-05-07T02:15:55;99199.82;;;9.45;87.90
75247;BME280;63844;50.042;19.224;2023-05-07T02:18:22;99206.48;;;9.43;88.04
75247;BME280;63844;50.042;19.224;2023-05-07T02:20:48;99205.30;;;9.42;88.21
75247;BME280;63844;50.042;19.224;2023-05-07T02:23:15;99207.67;;;9.44;86.69
75247;BME280;63844;50.042;19.224;2023-05-07T02:25:41;99209.81;;;9.37;87.30
75247;BME280;63844;50.042;19.224;2023-05-07T02:28:07;99207.92;;;9.33;87.70
75247;BME280;63844;50.042;19.224;2023-05-07T02:30:35;99214.10;;;9.30;88.17
75247;BME280;63844;50.042;19.224;2023-05-07T02:33:01;99214.30;;;9.27;87.75
75247;BME280;63844;50.042;19.224;2023-05-07T02:35:27;99214.38;;;9.19;88.07
75247;BME280;63844;50.042;19.224;2023-05-07T02:37:54;99220.48;;;9.17;87.74
75247;BME280;63844;50.042;19.224;2023-05-07T02:40:20;99214.45;;;9.17;87.76
75247;BME280;63844;50.042;19.224;2023-05-07T02:42:47;99214.34;;;9.13;88.62
75247;BME280;63844;50.042;19.224;2023-05-07T02:45:13;99214.20;;;9.06;88.91
75247;BME280;63844;50.042;19.224;2023-05-07T02:47:40;99215.38;;;9.08;88.13
75247;BME280;63844;50.042;19.224;2023-05-07T02:50:07;99217.16;;;9.07;88.64
75247;BME280;63844;50.042;19.224;2023-05-07T02:52:34;99220.93;;;9.06;88.04
75247;BME280;63844;50.042;19.224;2023-05-07T02:55:00;99222.09;;;9.04;87.94
75247;BME280;63844;50.042;19.224;2023-05-07T02:57:27;99220.65;;;9.02;88.29
75247;BME280;63844;50.042;19.224;2023-05-07T02:59:53;99221.52;;;9.02;87.36
75247;BME280;63844;50.042;19.224;2023-05-07T03:02:19;99219.88;;;9.06;87.21
75247;BME280;63844;50.042;19.224;2023-05-07T03:04:46;99217.55;;;9.07;87.78
75247;BME280;63844;50.042;19.224;2023-05-07T03:07:12;99219.73;;;9.08;88.16
75247;BME280;63844;50.042;19.224;2023-05-07T03:09:39;99219.99;;;9.10;88.00
75247;BME280;63844;50.042;19.224;2023-05-07T03:12:06;99218.49;;;9.12;87.63
75247;BME280;63844;50.042;19.224;2023-05-07T03:14:32;99220.11;;;9.08;88.58
75247;BME280;63844;50.042;19.224;2023-05-07T03:16:59;99223.53;;;9.07;87.97
75247;BME280;63844;50.042;19.224;2023-05-07T03:19:25;99223.04;;;9.03;88.43
75247;BME280;63844;50.042;19.224;2023-05-07T03:21:52;99226.30;;;8.98;88.40
75247;BME280;63844;50.042;19.224;2023-05-07T03:24:18;99235.70;;;8.95;88.60
75247;BME280;63844;50.042;19.224;2023-05-07T03:26:45;99235.48;;;8.89;88.68
75247;BME280;63844;50.042;19.224;2023-05-07T03:29:11;99239.56;;;8.89;88.19
75247;BME280;63844;50.042;19.224;2023-05-07T03:31:38;99238.22;;;8.87;88.52
75247;BME280;63844;50.042;19.224;2023-05-07T03:34:04;99240.05;;;8.80;88.61
75247;BME280;63844;50.042;19.224;2023-05-07T03:36:31;99242.46;;;8.74;88.92
75247;BME280;63844;50.042;19.224;2023-05-07T03:38:57;99243.98;;;8.75;88.28
75247;BME280;63844;50.042;19.224;2023-05-07T03:41:24;99246.41;;;8.73;88.56
75247;BME280;63844;50.042;19.224;2023-05-07T03:43:52;99250.55;;;8.72;88.97
75247;BME280;63844;50.042;19.224;2023-05-07T03:46:18;99251.90;;;8.69;88.56
75247;BME280;63844;50.042;19.224;2023-05-07T03:48:45;99252.80;;;8.69;88.71
75247;BME280;63844;50.042;19.224;2023-05-07T03:51:11;99256.59;;;8.64;88.84
75247;BME280;63844;50.042;19.224;2023-05-07T03:53:37;99256.27;;;8.67;89.09
75247;BME280;63844;50.042;19.224;2023-05-07T03:56:04;99258.66;;;8.62;89.15
75247;BME280;63844;50.042;19.224;2023-05-07T03:58:31;99259.59;;;8.64;89.58
75247;BME280;63844;50.042;19.224;2023-05-07T04:00:57;99262.39;;;8.65;88.91
75247;BME280;63844;50.042;19.224;2023-05-07T04:03:24;99263.52;;;8.70;87.95
75247;BME280;63844;50.042;19.224;2023-05-07T04:05:50;99267.02;;;8.73;88.74
75247;BME280;63844;50.042;19.224;2023-05-07T04:08:17;99272.99;;;8.67;88.35
75247;BME280;63844;50.042;19.224;2023-05-07T04:10:43;99271.53;;;8.62;88.75
75247;BME280;63844;50.042;19.224;2023-05-07T04:13:09;99272.75;;;8.66;88.63
75247;BME280;63844;50.042;19.224;2023-05-07T04:15:36;99279.86;;;8.64;88.49
75247;BME280;63844;50.042;19.224;2023-05-07T04:18:02;99281.30;;;8.58;88.32
75247;BME280;63844;50.042;19.224;2023-05-07T04:20:29;99281.56;;;8.62;88.08
75247;BME280;63844;50.042;19.224;2023-05-07T04:22:55;99285.61;;;8.66;88.19
75247;BME280;63844;50.042;19.224;2023-05-07T04:25:22;99291.80;;;8.66;88.08
75247;BME280;63844;50.042;19.224;2023-05-07T04:27:52;99288.76;;;8.70;87.81
75247;BME280;63844;50.042;19.224;2023-05-07T04:30:19;99293.45;;;8.74;86.97
75247;BME280;63844;50.042;19.224;2023-05-07T04:32:46;99296.01;;;8.76;86.94
75247;BME280;63844;50.042;19.224;2023-05-07T04:35:12;99297.48;;;8.79;86.85
75247;BME280;63844;50.042;19.224;2023-05-07T04:37:38;99303.41;;;8.70;87.78
75247;BME280;63844;50.042;19.224;2023-05-07T04:40:06;99308.84;;;8.64;87.74
75247;BME280;63844;50.042;19.224;2023-05-07T04:42:33;99308.15;;;8.60;88.27
75247;BME280;63844;50.042;19.224;2023-05-07T04:45:00;99309.46;;;8.55;88.59
75247;BME280;63844;50.042;19.224;2023-05-07T04:47:27;99318.43;;;8.63;88.33
75247;BME280;63844;50.042;19.224;2023-05-07T04:49:53;99324.42;;;8.66;87.72
75247;BME280;63844;50.042;19.224;2023-05-07T04:52:20;99327.71;;;8.67;87.61
75247;BME280;63844;50.042;19.224;2023-05-07T04:54:46;99329.34;;;8.70;87.85
75247;BME280;63844;50.042;19.224;2023-05-07T04:57:13;99333.70;;;8.68;87.21
75247;BME280;63844;50.042;19.224;2023-05-07T04:59:39;99340.45;;;8.60;87.85
75247;BME280;63844;50.042;19.224;2023-05-07T05:02:06;99338.95;;;8.62;87.94
75247;BME280;63844;50.042;19.224;2023-05-07T05:04:32;99343.55;;;8.65;87.28
75247;BME280;63844;50.042;19.224;2023-05-07T05:06:59;99341.46;;;8.61;87.55
75247;BME280;63844;50.042;19.224;2023-05-07T05:09:25;99343.29;;;8.60;87.77
75247;BME280;63844;50.042;19.224;2023-05-07T05:11:52;99350.05;;;8.62;87.21
75247;BME280;63844;50.042;19.224;2023-05-07T05:14:18;99352.86;;;8.62;87.76
75247;BME280;63844;50.042;19.224;2023-05-07T05:16:44;99351.66;;;8.62;87.72
75247;BME280;63844;50.042;19.224;2023-05-07T05:19:11;99354.47;;;8.55;87.61
75247;BME280;63844;50.042;19.224;2023-05-07T05:21:37;99361.89;;;8.55;87.86
75247;BME280;63844;50.042;19.224;2023-05-07T05:24:04;99363.65;;;8.51;87.82
75247;BME280;63844;50.042;19.224;2023-05-07T05:26:30;99364.01;;;8.45;87.66
75247;BME280;63844;50.042;19.224;2023-05-07T05:28:57;99366.64;;;8.37;88.57
75247;BME280;63844;50.042;19.224;2023-05-07T05:31:23;99372.23;;;8.42;87.72
75247;BME280;63844;50.042;19.224;2023-05-07T05:33:50;99370.35;;;8.38;87.87
75247;BME280;63844;50.042;19.224;2023-05-07T05:36:17;99376.86;;;8.38;88.43
75247;BME280;63844;50.042;19.224;2023-05-07T05:38:43;99379.11;;;8.39;89.08
75247;BME280;63844;50.042;19.224;2023-05-07T05:41:10;99381.80;;;8.38;88.87
75247;BME280;63844;50.042;19.224;2023-05-07T05:43:37;99386.27;;;8.37;88.22
75247;BME280;63844;50.042;19.224;2023-05-07T05:46:03;99386.25;;;8.37;87.98
75247;BME280;63844;50.042;19.224;2023-05-07T05:48:30;99386.84;;;8.36;88.07
75247;BME280;63844;50.042;19.224;2023-05-07T05:50:57;99388.42;;;8.39;87.67
75247;BME280;63844;50.042;19.224;2023-05-07T05:53:23;99387.77;;;8.38;88.48
75247;BME280;63844;50.042;19.224;2023-05-07T05:55:50;99389.83;;;8.40;87.93
75247;BME280;63844;50.042;19.224;2023-05-07T05:58:17;99388.66;;;8.38;88.10
75247;BME280;63844;50.042;19.224;2023-05-07T06:00:44;99388.84;;;8.34;87.94
75247;BME280;63844;50.042;19.224;2023-05-07T06:03:11;99394.39;;;8.29;87.80
75247;BME280;63844;50.042;19.224;2023-05-07T06:05:37;99397.84;;;8.24;88.21
75247;BME280;63844;50.042;19.224;2023-05-07T06:08:04;99403.27;;;8.21;88.63
75247;BME280;63844;50.042;19.224;2023-05-07T06:10:30;99404.92;;;8.22;88.41
75247;BME280;63844;50.042;19.224;2023-05-07T06:12:57;99412.06;;;8.24;88.03
75247;BME280;63844;50.042;19.224;2023-05-07T06:15:24;99413.92;;;8.23;88.27
75247;BME280;63844;50.042;19.224;2023-05-07T06:17:50;99412.70;;;8.19;87.58
75247;BME280;63844;50.042;19.224;2023-05-07T06:20:17;99413.92;;;8.19;87.87
75247;BME280;63844;50.042;19.224;2023-05-07T06:22:43;99416.88;;;8.13;88.10
75247;BME280;63844;50.042;19.224;2023-05-07T06:25:10;99419.79;;;8.07;88.40
75247;BME280;63844;50.042;19.224;2023-05-07T06:27:36;99423.42;;;8.02;89.11
75247;BME280;63844;50.042;19.224;2023-05-07T06:30:03;99425.48;;;8.03;89.09
75247;BME280;63844;50.042;19.224;2023-05-07T06:32:30;99428.77;;;8.04;88.71
75247;BME280;63844;50.042;19.224;2023-05-07T06:34:56;99431.23;;;8.01;88.56
75247;BME280;63844;50.042;19.224;2023-05-07T06:37:23;99434.75;;;8.01;88.20
75247;BME280;63844;50.042;19.224;2023-05-07T06:39:50;99434.21;;;8.01;88.63
75247;BME280;63844;50.042;19.224;2023-05-07T06:42:16;99436.39;;;8.07;88.06
75247;BME280;63844;50.042;19.224;2023-05-07T06:44:42;99434.52;;;8.09;88.94
75247;BME280;63844;50.042;19.224;2023-05-07T06:47:09;99436.41;;;8.10;88.65
75247;BME280;63844;50.042;19.224;2023-05-07T06:49:35;99436.89;;;8.11;88.41
75247;BME280;63844;50.042;19.224;2023-05-07T06:52:02;99439.23;;;8.10;88.05
75247;BME280;63844;50.042;19.224;2023-05-07T06:54:29;99443.44;;;8.07;87.83
75247;BME280;63844;50.042;19.224;2023-05-07T06:56:55;99444.69;;;8.03;87.62
75247;BME280;63844;50.042;19.224;2023-05-07T06:59:21;99440.84;;;8.03;87.71
75247;BME280;63844;50.042;19.224;2023-05-07T07:01:48;99445.69;;;8.04;87.11
75247;BME280;63844;50.042;19.224;2023-05-07T07:04:14;99448.36;;;8.00;86.85
75247;BME280;63844;50.042;19.224;2023-05-07T07:06:41;99448.02;;;7.96;86.99
75247;BME280;63844;50.042;19.224;2023-05-07T07:09:07;99452.11;;;8.03;86.76
75247;BME280;63844;50.042;19.224;2023-05-07T07:11:34;99454.12;;;8.01;86.87
75247;BME280;63844;50.042;19.224;2023-05-07T07:14:00;99457.09;;;7.95;87.05
75247;BME280;63844;50.042;19.224;2023-05-07T07:16:27;99457.73;;;7.93;86.88
75247;BME280;63844;50.042;19.224;2023-05-07T07:18:53;99465.39;;;7.91;87.07
75247;BME280;63844;50.042;19.224;2023-05-07T07:21:20;99470.67;;;7.94;87.12
75247;BME280;63844;50.042;19.224;2023-05-07T07:23:46;99472.09;;;7.94;86.44
75247;BME280;63844;50.042;19.224;2023-05-07T07:26:13;99475.91;;;7.92;86.34
75247;BME280;63844;50.042;19.224;2023-05-07T07:28:43;99480.60;;;7.97;86.27
75247;BME280;63844;50.042;19.224;2023-05-07T07:31:11;99486.73;;;8.01;85.98
75247;BME280;63844;50.042;19.224;2023-05-07T07:33:38;99484.10;;;8.01;85.51
75247;BME280;63844;50.042;19.224;2023-05-07T07:36:05;99488.19;;;7.93;85.61
75247;BME280;63844;50.042;19.224;2023-05-07T07:38:33;99489.22;;;7.85;85.73
75247;BME280;63844;50.042;19.224;2023-05-07T07:41:00;99492.86;;;7.87;85.55
75247;BME280;63844;50.042;19.224;2023-05-07T07:43:27;99493.98;;;7.78;85.68
75247;BME280;63844;50.042;19.224;2023-05-07T07:45:54;99496.95;;;7.82;85.88
75247;BME280;63844;50.042;19.224;2023-05-07T07:48:20;99496.08;;;7.86;85.86
75247;BME280;63844;50.042;19.224;2023-05-07T07:50:50;99497.98;;;7.91;85.69
75247;BME280;63844;50.042;19.224;2023-05-07T07:53:17;99497.42;;;7.91;85.29
75247;BME280;63844;50.042;19.224;2023-05-07T07:55:44;99502.89;;;7.99;85.30
75247;BME280;63844;50.042;19.224;2023-05-07T07:58:11;99508.46;;;8.04;85.07
75247;BME280;63844;50.042;19.224;2023-05-07T08:00:37;99511.33;;;7.99;84.49
75247;BME280;63844;50.042;19.224;2023-05-07T08:03:04;99513.95;;;7.99;84.86
75247;BME280;63844;50.042;19.224;2023-05-07T08:05:31;99515.61;;;8.05;84.24
75247;BME280;63844;50.042;19.224;2023-05-07T08:07:57;99518.75;;;8.03;84.53
75247;BME280;63844;50.042;19.224;2023-05-07T08:10:24;99517.89;;;8.06;84.29
75247;BME280;63844;50.042;19.224;2023-05-07T08:12:51;99521.40;;;8.06;83.99
75247;BME280;63844;50.042;19.224;2023-05-07T08:15:17;99527.02;;;7.99;83.91
75247;BME280;63844;50.042;19.224;2023-05-07T08:17:44;99525.88;;;7.98;84.10
75247;BME280;63844;50.042;19.224;2023-05-07T08:20:10;99529.08;;;8.04;83.79
75247;BME280;63844;50.042;19.224;2023-05-07T08:22:37;99529.20;;;8.09;83.80
75247;BME280;63844;50.042;19.224;2023-05-07T08:25:04;99531.38;;;8.04;83.09
75247;BME280;63844;50.042;19.224;2023-05-07T08:27:30;99538.98;;;8.07;83.51
75247;BME280;63844;50.042;19.224;2023-05-07T08:29:57;99538.02;;;8.12;83.18
75247;BME280;63844;50.042;19.224;2023-05-07T08:32:23;99539.80;;;8.20;83.20
75247;BME280;63844;50.042;19.224;2023-05-07T08:34:50;99540.91;;;8.22;82.35
75247;BME280;63844;50.042;19.224;2023-05-07T08:37:16;99543.73;;;8.22;81.77
75247;BME280;63844;50.042;19.224;2023-05-07T08:39:43;99544.12;;;8.22;82.34
75247;BME280;63844;50.042;19.224;2023-05-07T08:42:11;99546.29;;;8.35;82.30
75247;BME280;63844;50.042;19.224;2023-05-07T08:44:39;99553.92;;;8.39;81.24
75247;BME280;63844;50.042;19.224;2023-05-07T08:47:07;99555.65;;;8.35;80.77
75247;BME280;63844;50.042;19.224;2023-05-07T08:49:34;99559.04;;;8.38;80.87
75247;BME280;63844;50.042;19.224;2023-05-07T08:52:01;99556.77;;;8.42;81.38
75247;BME280;63844;50.042;19.224;2023-05-07T08:54:28;99560.84;;;8.53;80.90
75247;BME280;63844;50.042;19.224;2023-05-07T08:56:55;99565.58;;;8.53;80.47
75247;BME280;63844;50.042;19.224;2023-05-07T08:59:22;99571.61;;;8.49;80.31
75247;BME280;63844;50.042;19.224;2023-05-07T09:01:48;99573.56;;;8.49;80.14
75247;BME280;63844;50.042;19.224;2023-05-07T09:04:15;99574.00;;;8.46;80.17
75247;BME280;63844;50.042;19.224;2023-05-07T09:06:41;99574.43;;;8.56;80.79
75247;BME280;63844;50.042;19.224;2023-05-07T09:09:08;99576.52;;;8.67;79.91
75247;BME280;63844;50.042;19.224;2023-05-07T09:11:34;99577.60;;;8.78;79.20
75247;BME280;63844;50.042;19.224;2023-05-07T09:14:01;99583.43;;;8.82;79.11
75247;BME280;63844;50.042;19.224;2023-05-07T09:16:30;99585.17;;;8.82;79.08
75247;BME280;63844;50.042;19.224;2023-05-07T09:18:58;99585.17;;;8.74;78.61
75247;BME280;63844;50.042;19.224;2023-05-07T09:21:25;99590.21;;;8.69;79.23
75247;BME280;63844;50.042;19.224;2023-05-07T09:23:53;99591.45;;;8.54;79.00
75247;BME280;63844;50.042;19.224;2023-05-07T09:26:22;99590.77;;;8.58;79.10
75247;BME280;63844;50.042;19.224;2023-05-07T09:28:49;99588.33;;;8.68;78.77
75247;BME280;63844;50.042;19.224;2023-05-07T09:31:16;99589.95;;;8.74;78.77
75247;BME280;63844;50.042;19.224;2023-05-07T09:33:42;99594.39;;;8.63;78.65
75247;BME280;63844;50.042;19.224;2023-05-07T09:36:09;99594.78;;;8.58;78.98
75247;BME280;63844;50.042;19.224;2023-05-07T09:38:37;99596.40;;;8.54;78.70
75247;BME280;63844;50.042;19.224;2023-05-07T09:41:06;99600.38;;;8.41;78.53
75247;BME280;63844;50.042;19.224;2023-05-07T09:43:35;99602.17;;;8.41;79.00
75247;BME280;63844;50.042;19.224;2023-05-07T09:46:12;99602.65;;;8.42;79.28
75247;BME280;63844;50.042;19.224;2023-05-07T09:48:42;99609.04;;;8.44;79.11
75247;BME280;63844;50.042;19.224;2023-05-07T09:51:21;99610.82;;;8.44;78.72
75247;BME280;63844;50.042;19.224;2023-05-07T09:53:49;99613.23;;;8.45;78.35
75247;BME280;63844;50.042;19.224;2023-05-07T09:56:17;99609.88;;;8.56;78.58
75247;BME280;63844;50.042;19.224;2023-05-07T09:58:45;99613.26;;;8.71;78.25
75247;BME280;63844;50.042;19.224;2023-05-07T10:01:12;99613.96;;;8.82;77.77
75247;BME280;63844;50.042;19.224;2023-05-07T10:03:40;99618.48;;;8.93;78.22
75247;BME280;63844;50.042;19.224;2023-05-07T10:06:11;99624.77;;;8.99;77.50
75247;BME280;63844;50.042;19.224;2023-05-07T10:08:39;99624.48;;;9.01;77.14
75247;BME280;63844;50.042;19.224;2023-05-07T10:11:06;99629.40;;;9.01;76.91
75247;BME280;63844;50.042;19.224;2023-05-07T10:13:33;99628.81;;;9.03;76.93
75247;BME280;63844;50.042;19.224;2023-05-07T10:16:05;99630.20;;;9.10;77.35
75247;BME280;63844;50.042;19.224;2023-05-07T10:18:32;99634.17;;;9.05;76.44
75247;BME280;63844;50.042;19.224;2023-05-07T10:21:08;99637.83;;;9.02;76.55
75247;BME280;63844;50.042;19.224;2023-05-07T10:23:38;99638.96;;;9.04;77.01
75247;BME280;63844;50.042;19.224;2023-05-07T10:26:06;99641.11;;;9.04;77.26
75247;BME280;63844;50.042;19.224;2023-05-07T10:28:38;99645.45;;;9.09;77.57
75247;BME280;63844;50.042;19.224;2023-05-07T10:31:40;99648.05;;;9.13;77.23
75247;BME280;63844;50.042;19.224;2023-05-07T10:34:17;99648.63;;;9.16;76.44
75247;BME280;63844;50.042;19.224;2023-05-07T10:36:46;99652.08;;;9.21;76.46
75247;BME280;63844;50.042;19.224;2023-05-07T10:39:14;99657.59;;;9.24;76.70
75247;BME280;63844;50.042;19.224;2023-05-07T10:41:40;99657.87;;;9.15;76.04
75247;BME280;63844;50.042;19.224;2023-05-07T10:44:07;99661.81;;;9.07;76.89
75247;BME280;63844;50.042;19.224;2023-05-07T10:46:33;99662.64;;;9.11;76.71
75247;BME280;63844;50.042;19.224;2023-05-07T10:51:33;99661.11;;;9.14;76.47
75247;BME280;63844;50.042;19.224;2023-05-07T10:56:42;99660.89;;;9.07;76.30
75247;BME280;63844;50.042;19.224;2023-05-07T11:04:25;99664.16;;;9.09;76.71
75247;BME280;63844;50.042;19.224;2023-05-07T11:15:05;99670.27;;;8.92;76.92
75247;BME280;63844;50.042;19.224;2023-05-07T11:17:33;99674.84;;;8.89;76.87
75247;BME280;63844;50.042;19.224;2023-05-07T11:20:03;99676.55;;;8.86;76.60
75247;BME280;63844;50.042;19.224;2023-05-07T11:24:59;99685.72;;;8.75;76.69
75247;BME280;63844;50.042;19.224;2023-05-07T11:27:26;99689.34;;;8.73;77.08
75247;BME280;63844;50.042;19.224;2023-05-07T11:29:53;99684.75;;;8.77;77.00
75247;BME280;63844;50.042;19.224;2023-05-07T11:32:23;99683.23;;;8.80;76.82
75247;BME280;63844;50.042;19.224;2023-05-07T11:34:57;99684.59;;;8.85;76.62
75247;BME280;63844;50.042;19.224;2023-05-07T11:37:26;99688.55;;;8.83;77.01
75247;BME280;63844;50.042;19.224;2023-05-07T11:40:07;99693.87;;;8.86;77.19
75247;BME280;63844;50.042;19.224;2023-05-07T11:42:36;99696.60;;;8.80;76.68
75247;BME280;63844;50.042;19.224;2023-05-07T11:45:05;99702.13;;;8.57;77.27
75247;BME280;63844;50.042;19.224;2023-05-07T11:47:33;99701.30;;;8.52;77.99
75247;BME280;63844;50.042;19.224;2023-05-07T11:50:04;99705.17;;;8.56;77.84
75247;BME280;63844;50.042;19.224;2023-05-07T11:52:32;99705.44;;;8.58;77.84
75247;BME280;63844;50.042;19.224;2023-05-07T11:55:00;99705.66;;;8.53;77.32
75247;BME280;63844;50.042;19.224;2023-05-07T11:57:27;99710.02;;;8.47;77.76
75247;BME280;63844;50.042;19.224;2023-05-07T11:59:59;99708.83;;;8.42;78.03
75247;BME280;63844;50.042;19.224;2023-05-07T12:02:26;99712.00;;;8.49;77.77
75247;BME280;63844;50.042;19.224;2023-05-07T12:04:53;99709.04;;;8.45;78.18
75247;BME280;63844;50.042;19.224;2023-05-07T12:07:20;99712.90;;;8.41;77.97
75247;BME280;63844;50.042;19.224;2023-05-07T12:09:46;99709.77;;;8.32;78.46
75247;BME280;63844;50.042;19.224;2023-05-07T12:12:14;99712.31;;;8.43;78.49
75247;BME280;63844;50.042;19.224;2023-05-07T12:14:45;99710.61;;;8.57;78.41
75247;BME280;63844;50.042;19.224;2023-05-07T12:17:13;99717.02;;;8.67;77.81
75247;BME280;63844;50.042;19.224;2023-05-07T12:19:42;99719.69;;;8.62;77.26
75247;BME280;63844;50.042;19.224;2023-05-07T12:22:09;99722.20;;;8.65;77.27
75247;BME280;63844;50.042;19.224;2023-05-07T12:24:47;99724.09;;;8.70;77.23
75247;BME280;63844;50.042;19.224;2023-05-07T12:27:14;99718.20;;;8.68;77.60
75247;BME280;63844;50.042;19.224;2023-05-07T12:29:48;99722.98;;;8.67;77.66
75247;BME280;63844;50.042;19.224;2023-05-07T12:32:16;99726.17;;;8.71;77.44
75247;BME280;63844;50.042;19.224;2023-05-07T12:34:44;99729.41;;;8.73;76.98
75247;BME280;63844;50.042;19.224;2023-05-07T12:37:11;99729.29;;;8.76;76.86
75247;BME280;63844;50.042;19.224;2023-05-07T12:39:45;99733.98;;;8.66;77.19
75247;BME280;63844;50.042;19.224;2023-05-07T12:42:16;99736.04;;;8.71;77.21
75247;BME280;63844;50.042;19.224;2023-05-07T12:44:46;99736.86;;;8.76;77.21
75247;BME280;63844;50.042;19.224;2023-05-07T12:47:12;99734.27;;;8.75;76.45
75247;BME280;63844;50.042;19.224;2023-05-07T12:49:40;99732.84;;;8.76;76.67
75247;BME280;63844;50.042;19.224;2023-05-07T12:52:07;99736.17;;;8.69;76.54
75247;BME280;63844;50.042;19.224;2023-05-07T12:54:37;99738.23;;;8.74;76.64
75247;BME280;63844;50.042;19.224;2023-05-07T12:57:08;99734.36;;;8.81;76.55
75247;BME280;63844;50.042;19.224;2023-05-07T12:59:37;99734.02;;;8.85;75.88
75247;BME280;63844;50.042;19.224;2023-05-07T13:02:04;99734.02;;;8.85;76.02
75247;BME280;63844;50.042;19.224;2023-05-07T13:04:31;99739.52;;;8.88;76.36
75247;BME280;63844;50.042;19.224;2023-05-07T13:06:58;99747.05;;;8.82;75.80
75247;BME280;63844;50.042;19.224;2023-05-07T13:09:25;99744.27;;;8.81;76.14
75247;BME280;63844;50.042;19.224;2023-05-07T13:11:52;99749.38;;;8.81;76.14
75247;BME280;63844;50.042;19.224;2023-05-07T13:14:18;99747.19;;;8.90;76.10
75247;BME280;63844;50.042;19.224;2023-05-07T13:16:47;99744.42;;;8.96;75.61
75247;BME280;63844;50.042;19.224;2023-05-07T13:19:14;99741.11;;;8.99;75.57